createdAt,value
2024-03-06T00:01:07.678Z,100547.14
2024-03-06T00:05:25.958Z,100548.92
2024-03-06T00:09:28.423Z,100548.96
2024-03-06T00:13:30.325Z,100550.39
2024-03-06T00:17:32.278Z,100551.80
2024-03-06T00:21:34.336Z,100549.95
2024-03-06T00:25:36.910Z,100552.47
2024-03-06T00:29:39.048Z,100552.67
2024-03-06T00:33:41.124Z,100557.44
2024-03-06T00:37:43.044Z,100557.08
2024-03-06T00:41:45.193Z,100558.05
2024-03-06T00:45:47.084Z,100561.64
2024-03-06T00:49:49.106Z,100564.56
2024-03-06T00:53:50.987Z,100569.31
2024-03-06T00:57:52.853Z,100570.52
2024-03-06T01:01:58.056Z,100575.80
2024-03-06T01:06:00.220Z,100574.37
2024-03-06T01:10:02.855Z,100573.98
2024-03-06T01:14:05.393Z,100570.15
2024-03-06T01:18:07.430Z,100567.02
2024-03-06T01:22:09.711Z,100569.44
2024-03-06T01:26:12.298Z,100567.17
2024-03-06T01:30:14.429Z,100569.52
2024-03-06T01:34:16.384Z,100573.81
2024-03-06T01:38:18.410Z,100577.38
2024-03-06T01:42:20.305Z,100579.62
2024-03-06T01:46:22.232Z,100583.32
2024-03-06T01:50:24.457Z,100587.23
2024-03-06T01:54:27.356Z,100591.59
2024-03-06T01:58:29.423Z,100592.45
2024-03-06T02:02:31.604Z,100592.11
2024-03-06T02:06:34.346Z,100598.08
2024-03-06T02:10:36.666Z,100593.02
2024-03-06T02:14:38.813Z,100593.77
2024-03-06T02:18:55.379Z,100596.28
2024-03-06T02:22:57.341Z,100597.92
2024-03-06T02:26:59.385Z,100599.98
2024-03-06T02:31:02.563Z,100601.87
2024-03-06T02:35:09.006Z,100604.30
2024-03-06T02:39:10.804Z,100607.05
2024-03-06T02:43:12.761Z,100604.19
2024-03-06T02:47:14.728Z,100604.89
2024-03-06T02:51:20.609Z,100609.66
2024-03-06T02:55:24.329Z,100611.96
2024-03-06T02:59:27.150Z,100612.47
2024-03-06T03:03:30.312Z,100617.41
2024-03-06T03:07:32.668Z,100619.23
2024-03-06T03:11:36.675Z,100624.38
2024-03-06T03:15:38.755Z,100625.05
2024-03-06T03:19:40.878Z,100633.39
2024-03-06T03:23:43.093Z,100635.81
2024-03-06T03:27:45.057Z,100637.40
2024-03-06T03:31:47.377Z,100644.30
2024-03-06T03:35:49.417Z,100646.41
2024-03-06T03:39:51.233Z,100648.27
2024-03-06T03:43:53.602Z,100639.27
2024-03-06T03:47:55.586Z,100640.20
2024-03-06T03:51:57.544Z,100643.85
2024-03-06T03:56:00.082Z,100651.14
2024-03-06T04:00:02.250Z,100657.59
2024-03-06T04:04:05.066Z,100660.23
2024-03-06T04:08:07.264Z,100669.46
2024-03-06T04:12:09.479Z,100670.40
2024-03-06T04:16:17.165Z,100676.76
2024-03-06T04:20:19.419Z,100674.73
2024-03-06T04:24:21.480Z,100674.52
2024-03-06T04:28:23.474Z,100680.73
2024-03-06T04:32:25.512Z,100686.30
2024-03-06T04:36:27.612Z,100691.27
2024-03-06T04:40:29.775Z,100693.21
2024-03-06T04:44:35.379Z,100693.95
2024-03-06T04:48:37.429Z,100694.77
2024-03-06T04:52:39.775Z,100698.34
2024-03-06T04:56:41.908Z,100701.02
2024-03-06T05:00:44.115Z,100702.81
2024-03-06T06:01:14.307Z,100751.95
2024-03-06T06:05:23.163Z,100761.45
2024-03-06T06:09:26.122Z,100760.26
2024-03-06T06:13:28.036Z,100761.86
2024-03-06T06:17:30.058Z,100761.09
2024-03-06T06:21:31.933Z,100767.39
2024-03-06T06:25:34.065Z,100776.90
2024-03-06T06:29:36.127Z,100784.94
2024-03-06T06:33:38.176Z,100790.16
2024-03-06T06:37:40.492Z,100788.45
2024-03-06T06:41:43.293Z,100782.23
2024-03-06T06:45:45.327Z,100785.63
2024-03-06T06:49:47.144Z,100785.94
2024-03-06T06:53:49.014Z,100790.96
2024-03-06T06:57:51.694Z,100798.10
2024-03-06T07:01:54.706Z,100796.72
2024-03-06T07:05:57.837Z,100796.30
2024-03-06T07:09:59.680Z,100796.35
2024-03-06T07:14:01.687Z,100798.96
2024-03-06T07:18:03.994Z,100805.36
2024-03-06T07:22:06.447Z,100809.02
2024-03-06T07:26:08.362Z,100809.91
2024-03-06T07:30:13.786Z,100819.80
2024-03-06T07:34:16.917Z,100820.73
2024-03-06T07:38:18.807Z,100823.10
2024-03-06T07:42:21.708Z,100827.45
2024-03-06T07:46:23.574Z,100831.79
2024-03-06T07:50:27.396Z,100837.23
2024-03-06T07:54:29.759Z,100834.87
2024-03-06T07:58:31.827Z,100839.71
2024-03-06T08:02:33.801Z,100846.21
2024-03-06T08:06:38.062Z,100848.13
2024-03-06T08:10:39.939Z,100853.31
2024-03-06T08:14:41.920Z,100854.88
2024-03-06T08:18:43.846Z,100857.58
2024-03-06T08:22:45.786Z,100858.09
2024-03-06T08:26:48.990Z,100858.38
2024-03-06T08:30:52.317Z,100860.41
2024-03-06T08:34:54.104Z,100866.79
2024-03-06T08:38:55.982Z,100868.10
2024-03-06T08:42:57.851Z,100868.43
2024-03-06T08:46:59.775Z,100870.58
2024-03-06T08:51:01.682Z,100871.48
2024-03-06T08:55:07.320Z,100874.08
2024-03-06T08:59:09.262Z,100866.66
2024-03-06T09:03:11.104Z,100875.51
2024-03-06T09:07:13.865Z,100883.13
2024-03-06T09:11:16.106Z,100887.80
2024-03-06T09:15:18.561Z,100893.65
2024-03-06T09:19:20.381Z,100897.60
2024-03-06T09:23:22.259Z,100894.44
2024-03-06T09:27:24.186Z,100894.03
2024-03-06T09:31:26.006Z,100899.91
2024-03-06T09:35:27.993Z,100908.60
2024-03-06T09:39:29.853Z,100911.09
2024-03-06T09:43:32.440Z,100915.73
2024-03-06T09:47:37.729Z,100917.45
2024-03-06T09:51:42.154Z,100914.11
2024-03-06T09:55:46.753Z,100919.84
2024-03-06T09:59:48.585Z,100917.46
2024-03-06T10:03:51.188Z,100916.71
2024-03-06T10:07:53.537Z,100915.57
2024-03-06T10:11:57.588Z,100915.95
2024-03-06T10:16:05.155Z,100913.14
2024-03-06T10:20:21.635Z,100910.27
2024-03-06T10:24:29.015Z,100908.96
2024-03-06T10:28:32.790Z,100905.61
2024-03-06T10:32:34.865Z,100905.34
2024-03-06T10:36:37.883Z,100904.21
2024-03-06T10:40:42.924Z,100899.88
2024-03-06T10:44:53.627Z,100899.29
2024-03-06T10:48:59.185Z,100896.73
2024-03-06T10:53:02.108Z,100899.19
2024-03-06T10:57:04.629Z,100907.06
2024-03-06T11:01:09.354Z,100905.48
2024-03-06T11:05:11.486Z,100904.25
2024-03-06T11:09:15.698Z,100903.02
2024-03-06T11:13:20.417Z,100902.25
2024-03-06T11:17:26.836Z,100905.69
2024-03-06T11:21:29.046Z,100904.80
2024-03-06T11:25:55.604Z,100898.06
2024-03-06T11:30:11.657Z,100898.09
2024-03-06T11:34:16.855Z,100899.80
2024-03-06T11:38:22.046Z,100897.19
2024-03-06T11:42:39.781Z,100892.91
2024-03-06T11:46:43.417Z,100886.64
2024-03-06T11:50:45.800Z,100886.20
2024-03-06T11:54:47.666Z,100878.64
2024-03-06T11:58:50.391Z,100874.84
2024-03-06T12:02:52.588Z,100874.58
2024-03-06T12:07:05.528Z,100866.91
2024-03-06T12:11:08.488Z,100862.42
2024-03-06T12:15:12.281Z,100867.33
2024-03-06T12:19:14.143Z,100868.64
2024-03-06T12:23:23.900Z,100866.74
2024-03-06T12:27:25.671Z,100864.36
2024-03-06T12:31:27.460Z,100858.28
2024-03-06T12:35:29.393Z,100857.02
2024-03-06T12:39:33.481Z,100850.63
2024-03-06T12:43:35.398Z,100845.69
2024-03-06T12:47:38.183Z,100853.33
2024-03-06T12:51:41.033Z,100858.02
2024-03-06T12:55:46.297Z,100856.71
2024-03-06T12:59:48.163Z,100849.14
2024-03-06T13:03:50.051Z,100853.40
2024-03-06T13:07:51.907Z,100852.67
2024-03-06T13:11:55.119Z,100853.98
2024-03-06T13:15:57.156Z,100860.11
2024-03-06T13:19:59.119Z,100860.99
2024-03-06T13:24:00.975Z,100857.20
2024-03-06T13:28:03.840Z,100859.06
2024-03-06T13:32:06.901Z,100860.04
2024-03-06T13:36:08.798Z,100862.09
2024-03-06T13:40:13.698Z,100864.83
2024-03-06T13:44:15.592Z,100861.77
2024-03-06T13:48:17.944Z,100860.21
2024-03-06T13:52:23.985Z,100864.03
2024-03-06T13:56:26.224Z,100860.40
2024-03-06T14:00:28.019Z,100861.55
2024-03-06T14:04:31.054Z,100867.05
2024-03-06T14:08:32.899Z,100865.77
2024-03-06T14:12:36.116Z,100868.84
2024-03-06T14:16:40.832Z,100864.38
2024-03-06T14:20:42.613Z,100872.10
2024-03-06T14:24:44.450Z,100868.23
2024-03-06T14:28:46.373Z,100867.51
2024-03-06T14:32:48.174Z,100864.17
2024-03-06T14:36:53.304Z,100870.30
2024-03-06T14:40:55.004Z,100870.80
2024-03-06T14:44:56.829Z,100872.54
2024-03-06T14:48:58.659Z,100871.04
2024-03-06T14:53:00.419Z,100870.92
2024-03-06T14:57:02.196Z,100872.80
2024-03-06T15:01:04.491Z,100873.70
2024-03-06T15:05:06.440Z,100872.44
2024-03-06T15:09:12.377Z,100877.63
2024-03-06T15:13:16.634Z,100878.45
2024-03-06T15:17:18.548Z,100883.70
2024-03-06T15:21:20.957Z,100883.94
2024-03-06T15:25:22.734Z,100889.02
2024-03-06T15:29:24.509Z,100885.99
2024-03-06T15:33:26.810Z,100886.14
2024-03-06T15:37:28.617Z,100892.93
2024-03-06T15:41:30.521Z,100900.11
2024-03-06T15:45:32.312Z,100899.73
2024-03-06T15:49:34.230Z,100897.13
2024-03-06T15:53:36.318Z,100901.61
2024-03-06T15:57:38.867Z,100898.60
2024-03-06T16:01:40.744Z,100905.70
2024-03-06T16:05:42.677Z,100911.48
2024-03-06T16:09:45.009Z,100912.48
2024-03-06T16:13:46.901Z,100912.56
2024-03-06T16:17:48.950Z,100915.53
2024-03-06T16:21:52.283Z,100921.48
2024-03-06T16:25:54.314Z,100922.59
2024-03-06T16:29:56.449Z,100924.23
2024-03-06T16:33:58.477Z,100929.33
2024-03-06T16:38:00.633Z,100938.17
2024-03-06T16:42:03.582Z,100939.14
2024-03-06T16:46:07.167Z,100942.06
2024-03-06T16:50:09.812Z,100940.91
2024-03-06T16:54:14.197Z,100943.85
2024-03-06T16:58:16.398Z,100946.20
2024-03-06T17:02:18.793Z,100947.87
2024-03-06T17:06:20.968Z,100945.74
2024-03-06T17:10:24.254Z,100948.55
2024-03-06T17:14:27.110Z,100952.25
2024-03-06T17:18:29.608Z,100953.23
2024-03-06T17:22:32.288Z,100953.83
2024-03-06T17:26:38.231Z,100954.63
2024-03-06T17:30:42.156Z,100959.25
2024-03-06T17:34:44.534Z,100964.65
2024-03-06T17:38:47.372Z,100962.08
2024-03-06T17:42:49.643Z,100964.96
2024-03-06T17:46:51.834Z,100961.39
2024-03-06T17:50:54.123Z,100963.88
2024-03-06T17:54:56.439Z,100959.52
2024-03-06T17:58:58.663Z,100960.73
2024-03-06T18:03:00.885Z,100963.27
2024-03-06T18:07:03.312Z,100963.27
2024-03-06T18:11:05.772Z,100964.29
2024-03-06T18:15:08.782Z,100964.07
2024-03-06T18:19:11.396Z,100965.38
2024-03-06T18:23:13.630Z,100965.88
2024-03-06T18:27:15.873Z,100961.83
2024-03-06T18:31:18.044Z,100965.59
2024-03-06T18:35:20.173Z,100967.48
2024-03-06T18:39:22.169Z,100970.10
2024-03-06T18:43:24.267Z,100968.66
2024-03-06T18:47:26.378Z,100969.27
2024-03-06T18:51:28.295Z,100966.05
2024-03-06T18:55:30.703Z,100966.65
2024-03-06T18:59:32.984Z,100969.50
2024-03-06T19:03:36.856Z,100969.67
2024-03-06T19:07:39.142Z,100972.02
2024-03-06T19:11:41.674Z,100975.66
2024-03-06T19:15:43.969Z,100977.70
2024-03-06T19:19:46.170Z,100978.85
2024-03-06T19:23:48.426Z,100983.52
2024-03-06T19:27:52.275Z,100981.77
2024-03-06T19:31:57.963Z,100981.20
2024-03-06T19:36:00.349Z,100984.29
2024-03-06T19:40:07.460Z,100984.51
2024-03-06T19:44:09.719Z,100981.55
2024-03-06T19:48:12.387Z,100983.17
2024-03-06T19:52:14.606Z,100982.41
2024-03-06T19:56:17.072Z,100984.40
2024-03-06T20:00:20.906Z,100988.20
2024-03-06T20:04:24.756Z,100987.41
2024-03-06T20:08:27.083Z,100983.38
2024-03-06T20:12:30.273Z,100989.14
2024-03-06T20:16:32.902Z,100991.27
2024-03-06T20:20:35.105Z,100986.61
2024-03-06T20:24:37.525Z,100989.59
2024-03-06T20:28:41.443Z,100981.42
2024-03-06T20:32:44.073Z,100984.59
2024-03-06T20:36:46.850Z,100982.98
2024-03-06T20:40:50.551Z,100986.74
2024-03-06T20:44:52.922Z,100985.64
2024-03-06T20:48:55.128Z,100981.75
2024-03-06T20:52:57.248Z,100977.09
2024-03-06T20:56:59.805Z,100983.08
2024-03-06T21:01:05.019Z,100984.77
2024-03-06T21:05:08.237Z,100989.14
2024-03-06T21:09:12.034Z,100993.09
2024-03-06T21:13:14.106Z,100997.84
2024-03-06T21:17:18.521Z,100997.41
2024-03-06T21:21:20.779Z,101002.39
2024-03-06T21:25:24.300Z,101005.94
2024-03-06T21:29:27.628Z,101011.80
2024-03-06T21:33:29.962Z,101011.92
2024-03-06T21:37:33.191Z,101014.76
2024-03-06T21:41:38.223Z,101011.52
2024-03-06T21:45:40.391Z,101011.67
2024-03-06T21:49:42.810Z,101012.94
2024-03-06T21:53:44.995Z,101012.79
2024-03-06T21:57:47.223Z,101015.41
2024-03-06T22:01:49.939Z,101019.31
2024-03-06T22:05:52.039Z,101015.80
2024-03-06T22:09:54.247Z,101024.02
2024-03-06T22:13:56.483Z,101024.96
2024-03-06T22:17:58.659Z,101026.39
2024-03-06T22:22:00.997Z,101034.77
2024-03-06T22:26:03.264Z,101034.98
2024-03-06T22:30:07.152Z,101038.11
2024-03-06T22:34:09.262Z,101040.21
2024-03-06T22:38:11.446Z,101043.71
2024-03-06T22:42:13.606Z,101039.59
2024-03-06T22:46:16.401Z,101045.88
2024-03-06T22:50:18.653Z,101042.43
2024-03-06T22:54:20.967Z,101046.73
2024-03-06T22:58:23.291Z,101048.28
2024-03-06T23:02:25.336Z,101046.13
2024-03-06T23:06:27.545Z,101045.30
2024-03-06T23:10:29.588Z,101046.11
2024-03-06T23:14:31.710Z,101047.58
2024-03-06T23:18:33.933Z,101046.91
2024-03-06T23:22:36.028Z,101050.25
2024-03-06T23:26:38.362Z,101051.80
2024-03-06T23:30:41.471Z,101051.17
2024-03-06T23:34:43.610Z,101053.13
2024-03-06T23:38:45.875Z,101055.61
2024-03-06T23:42:48.223Z,101051.06
2024-03-06T23:46:50.333Z,101053.79
2024-03-06T23:50:52.630Z,101055.95
2024-03-06T23:54:55.097Z,101055.14
2024-03-06T23:58:57.562Z,101055.29
